Time;durP1;ratioP1;P1;durP2;ratioP2;P2;SDS_P1;SDS_P2;PMS_P1;PMS_P2;Temp;Humidity;BMP_temperature;BMP_pressure;BME280_temperature;BME280_humidity;BME280_pressure;Samples;Min_cycle;Max_cycle;Signal;HPM_P1;HPM_P2
2020/12/31 00:00:48;;;;;;;7.82;3.35;;;;;;;4.67;72.22;99042.56;3795133;23;20172;-77
2020/12/31 00:02:20;;;;;;;6.85;3.35;;;;;;;4.64;72.17;99035.75;3795725;23;20030;-77
2020/12/31 00:03:54;;;;;;;6.32;3.38;;;;;;;4.61;71.88;99035.16;3801872;23;20060;-76
2020/12/31 00:05:26;;;;;;;8.25;3.95;;;;;;;4.60;72.27;99030.84;3795147;23;20077;-77
2020/12/31 00:06:58;;;;;;;6.25;3.53;;;;;;;4.49;71.98;99035.25;3802319;23;20053;-76
2020/12/31 00:08:38;;;;;;;7.93;4.22;;;;;;;4.46;71.71;99034.66;3794581;23;20025;-77
2020/12/31 00:10:10;;;;;;;6.30;3.83;;;;;;;4.43;72.21;99041.06;3802296;23;20025;-76
2020/12/31 00:11:52;;;;;;;6.85;3.50;;;;;;;4.36;72.32;99034.59;3794650;23;20049;-76
2020/12/31 00:13:23;;;;;;;8.10;3.95;;;;;;;4.37;72.48;99039.78;3801762;23;20026;-77
2020/12/31 00:14:55;;;;;;;9.13;4.85;;;;;;;4.35;72.52;99028.47;3794255;23;20029;-76
2020/12/31 00:16:27;;;;;;;6.93;3.58;;;;;;;4.38;72.51;99032.66;3802168;23;20022;-77
2020/12/31 00:17:58;;;;;;;7.78;4.20;;;;;;;4.34;72.62;99033.91;3795758;23;20033;-76
2020/12/31 00:19:30;;;;;;;7.60;4.10;;;;;;;4.31;72.53;99023.56;3801740;23;20026;-76
2020/12/31 00:21:01;;;;;;;7.65;4.22;;;;;;;4.32;72.67;99020.78;3795186;23;20022;-77
2020/12/31 00:27:34;;;;;;;7.78;4.28;;;;;;;4.29;72.85;99028.16;3815190;23;19916;-76
2020/12/31 00:29:07;;;;;;;7.40;3.75;;;;;;;4.27;72.88;99025.63;3820653;23;20044;-76
2020/12/31 00:30:38;;;;;;;8.05;3.90;;;;;;;4.33;72.93;99026.94;3812848;23;20037;-76
2020/12/31 00:42:28;;;;;;;6.63;3.20;;;;;;;4.44;72.00;99024.19;3822017;23;20072;-76
2020/12/31 00:44:00;;;;;;;5.63;3.40;;;;;;;4.45;71.87;99025.88;3820914;23;20041;-76
2020/12/31 00:45:38;;;;;;;5.05;2.80;;;;;;;4.47;71.55;99026.59;3813545;23;20029;-76
2020/12/31 00:47:10;;;;;;;5.45;2.90;;;;;;;4.46;71.79;99013.50;3824055;23;20029;-77
2020/12/31 00:48:45;;;;;;;6.63;3.40;;;;;;;4.45;71.52;99015.28;3818146;23;20029;-76
2020/12/31 00:50:22;;;;;;;6.00;3.10;;;;;;;4.41;71.38;99005.94;3825312;23;20084;-77
2020/12/31 00:51:54;;;;;;;6.10;3.28;;;;;;;4.41;71.70;99016.53;3819198;23;20386;-76
2020/12/31 00:53:37;;;;;;;6.78;3.28;;;;;;;4.39;71.21;99020.28;3818400;23;20017;-77
2020/12/31 00:55:21;;;;;;;5.97;2.70;;;;;;;4.44;70.98;99016.25;3821885;23;20028;-77
2020/12/31 00:56:56;;;;;;;5.40;3.05;;;;;;;4.41;71.18;99019.19;3812692;23;20025;-76
2020/12/31 00:58:27;;;;;;;7.20;4.13;;;;;;;4.29;71.46;99007.84;3820382;23;20048;-77
2020/12/31 00:59:59;;;;;;;6.00;3.40;;;;;;;4.24;71.52;99009.19;3813732;23;20027;-77
2020/12/31 01:08:57;;;;;;;5.78;2.83;;;;;;;4.42;70.79;99001.47;3825868;22;20021;-76
2020/12/31 01:10:39;;;;;;;5.25;2.80;;;;;;;4.38;70.67;99011.50;3838711;23;20024;-76
2020/12/31 01:47:14;;;;;;;5.20;2.80;;;;;;;4.38;69.79;98990.31;3820249;23;20045;-78
2020/12/31 01:48:48;;;;;;;4.78;2.30;;;;;;;4.40;69.74;98975.16;3813279;23;20032;-75
2020/12/31 01:50:33;;;;;;;4.90;2.65;;;;;;;4.43;69.25;98988.13;3817777;23;20033;-78
2020/12/31 02:03:46;;;;;;;4.90;1.80;;;;;;;4.40;69.60;98977.81;3833497;23;20350;-77
2020/12/31 02:05:19;;;;;;;5.00;2.42;;;;;;;4.30;69.53;98967.16;3838697;23;20032;-77
2020/12/31 02:06:53;;;;;;;5.22;2.55;;;;;;;4.28;69.84;98962.97;3832917;23;20024;-78
2020/12/31 02:08:25;;;;;;;5.30;2.58;;;;;;;4.28;69.79;98965.63;3831129;23;20032;-77
2020/12/31 02:09:56;;;;;;;4.18;2.00;;;;;;;4.30;69.84;98971.63;3838628;23;20029;-77
2020/12/31 02:11:38;;;;;;;4.53;2.35;;;;;;;4.29;69.47;98965.50;3831647;23;20450;-77
2020/12/31 02:13:16;;;;;;;4.82;2.45;;;;;;;4.26;69.76;98964.91;3838136;23;20346;-76
2020/12/31 02:14:53;;;;;;;5.53;2.65;;;;;;;4.18;70.02;98962.94;3830646;23;20021;-76
2020/12/31 02:16:26;;;;;;;4.55;2.30;;;;;;;4.13;70.15;98962.47;3838706;23;20106;-76
2020/12/31 02:18:01;;;;;;;4.13;2.05;;;;;;;4.24;69.99;98966.84;3829158;23;20055;-76
2020/12/31 02:19:33;;;;;;;5.15;2.42;;;;;;;4.17;70.20;98963.88;3838808;23;20028;-76
2020/12/31 02:21:11;;;;;;;4.40;2.10;;;;;;;4.19;69.99;98961.97;3831873;23;20017;-76
2020/12/31 02:48:31;;;;;;;3.95;1.92;;;;;;;3.96;70.67;98964.72;3818811;23;20213;-77
2020/12/31 02:50:12;;;;;;;4.57;2.25;;;;;;;3.95;70.64;98956.94;3821436;23;20026;-77
2020/12/31 02:51:55;;;;;;;4.80;2.28;;;;;;;3.95;70.68;98959.59;3814893;23;20378;-78
2020/12/31 02:53:26;;;;;;;4.03;1.92;;;;;;;4.00;70.75;98966.16;3813108;23;20032;-77
2020/12/31 02:54:59;;;;;;;4.63;2.10;;;;;;;4.01;70.77;98967.00;3820885;23;20410;-77
2020/12/31 02:56:32;;;;;;;5.47;2.65;;;;;;;3.99;70.71;98964.47;3812117;23;20088;-77
2020/12/31 02:58:05;;;;;;;6.05;2.63;;;;;;;4.05;70.70;98960.47;3821237;23;20044;-77
2020/12/31 02:59:37;;;;;;;4.82;2.40;;;;;;;3.99;70.94;98950.41;3812520;23;20025;-76
2020/12/31 03:01:11;;;;;;;4.65;2.60;;;;;;;4.03;70.88;98959.78;3821150;23;20025;-76
2020/12/31 03:02:42;;;;;;;4.57;2.33;;;;;;;3.97;70.87;98955.00;3795252;23;20026;-77
2020/12/31 03:04:15;;;;;;;4.20;2.00;;;;;;;3.99;71.02;98956.53;3801619;23;20048;-77
2020/12/31 03:05:49;;;;;;;4.50;2.10;;;;;;;3.98;71.01;98951.38;3812264;23;20025;-78
2020/12/31 03:07:20;;;;;;;4.93;2.35;;;;;;;4.04;70.93;98948.22;3820924;23;20021;-76
2020/12/31 03:08:52;;;;;;;5.18;2.42;;;;;;;4.03;71.03;98959.78;3813760;23;20021;-76
2020/12/31 03:10:23;;;;;;;4.93;2.53;;;;;;;3.93;71.26;98958.88;3821322;23;20021;-77
2020/12/31 03:51:56;;;;;;;3.92;1.75;;;;;;;3.37;72.27;98924.63;3822583;23;20021;-76
2020/12/31 03:53:28;;;;;;;4.43;2.30;;;;;;;3.37;71.99;98916.69;3814216;23;20026;-77
2020/12/31 03:55:04;;;;;;;5.28;2.38;;;;;;;3.35;71.86;98913.38;3821208;23;20395;-76
2020/12/31 03:56:36;;;;;;;6.32;2.83;;;;;;;3.42;71.88;98911.03;3815017;23;20092;-77
2020/12/31 03:58:08;;;;;;;5.15;2.60;;;;;;;3.40;71.77;98905.06;3820523;23;20026;-77
2020/12/31 03:59:45;;;;;;;5.85;2.20;;;;;;;3.43;71.80;98905.66;3813887;23;20156;-76
2020/12/31 04:01:17;;;;;;;5.35;2.28;;;;;;;3.44;71.70;98901.19;3820392;23;20117;-77
2020/12/31 04:08:50;;;;;;;5.45;2.58;;;;;;;3.40;71.54;98899.78;3819375;22;21373;-76
2020/12/31 04:10:36;;;;;;;4.38;1.95;;;;;;;3.39;71.41;98896.28;3820818;23;20083;-77
2020/12/31 04:30:29;;;;;;;4.55;2.20;;;;;;;3.30;71.30;98872.44;3821282;23;20025;-77
2020/12/31 04:32:03;;;;;;;6.03;2.70;;;;;;;3.23;71.24;98861.53;3820722;23;20017;-79
2020/12/31 04:33:34;;;;;;;4.88;2.20;;;;;;;3.23;71.20;98865.00;3815241;23;20072;-77
2020/12/31 04:35:06;;;;;;;4.90;2.58;;;;;;;3.23;71.33;98872.94;3821641;23;20034;-77
2020/12/31 04:37:01;;;;;;;4.72;2.42;;;;;;;3.24;70.95;98869.31;3813594;23;20017;-77
2020/12/31 04:38:33;;;;;;;7.22;3.10;;;;;;;3.18;71.31;98858.44;3811455;23;20029;-77
2020/12/31 04:40:04;;;;;;;6.47;3.13;;;;;;;3.10;71.24;98861.72;3820471;23;20025;-77
2020/12/31 04:48:40;;;;;;;6.97;3.25;;;;;;;2.87;71.18;98855.69;3814745;23;20039;-77
2020/12/31 04:50:18;;;;;;;5.15;2.53;;;;;;;2.95;71.53;98861.16;3821260;23;20048;-78
2020/12/31 05:03:33;;;;;;;6.65;3.75;;;;;;;2.97;70.63;98851.31;3820238;23;20049;-76
2020/12/31 05:05:20;;;;;;;5.00;2.78;;;;;;;2.97;70.31;98864.53;3813851;23;20022;-76
2020/12/31 05:07:09;;;;;;;7.55;3.15;;;;;;;2.90;70.43;98864.19;3807776;23;20026;-76
2020/12/31 05:08:45;;;;;;;6.03;2.95;;;;;;;2.94;70.69;98855.03;3782097;23;20151;-76
2020/12/31 05:10:19;;;;;;;7.32;3.28;;;;;;;2.90;70.63;98861.53;3802429;23;20022;-76
2020/12/31 05:16:52;;;;;;;6.90;3.92;;;;;;;2.81;70.92;98863.13;3836751;23;20538;-76
2020/12/31 05:18:33;;;;;;;5.30;2.70;;;;;;;2.83;70.67;98868.28;3832384;23;20035;-76
2020/12/31 05:20:21;;;;;;;4.82;3.00;;;;;;;2.74;70.82;98861.94;3840359;23;20044;-78
2020/12/31 05:22:19;;;;;;;7.25;2.90;;;;;;;2.75;70.76;98862.75;3833613;23;20361;-77
2020/12/31 05:24:13;;;;;;;7.68;3.05;;;;;;;2.69;70.78;98855.34;3831210;23;20061;-76
2020/12/31 05:25:46;;;;;;;6.80;3.35;;;;;;;2.73;70.85;98859.44;3839395;23;20212;-76
2020/12/31 05:27:25;;;;;;;4.88;2.15;;;;;;;2.81;70.44;98859.66;3831736;23;20025;-76
2020/12/31 05:28:56;;;;;;;4.70;2.40;;;;;;;2.89;70.41;98859.88;3839046;23;20028;-76
2020/12/31 05:30:28;;;;;;;4.95;2.70;;;;;;;2.88;70.24;98863.47;3832377;23;20024;-77
2020/12/31 05:33:44;;;;;;;5.40;2.72;;;;;;;2.86;70.30;98852.19;3819833;23;20464;-77
2020/12/31 05:35:18;;;;;;;6.55;3.13;;;;;;;2.87;70.06;98856.50;3826979;23;20032;-77
2020/12/31 05:36:49;;;;;;;5.47;2.53;;;;;;;2.91;70.03;98852.66;3820255;23;20021;-77
2020/12/31 05:38:35;;;;;;;;;;;;;;;2.83;70.32;98857.72;3820708;23;20037;-76
2020/12/31 05:40:08;;;;;;;6.90;2.15;;;;;;;2.82;70.20;98848.13;3825227;23;19916;-78
2020/12/31 05:42:10;;;;;;;5.90;2.97;;;;;;;2.71;69.83;98859.53;3819198;23;20132;-78
2020/12/31 05:43:53;;;;;;;7.28;3.05;;;;;;;2.69;70.04;98855.34;3827609;23;20021;-77
2020/12/31 05:45:34;;;;;;;4.53;2.33;;;;;;;2.85;69.88;98868.16;3822932;23;20024;-77
2020/12/31 05:47:18;;;;;;;5.50;2.70;;;;;;;2.76;69.88;98860.03;3828626;23;20029;-76
2020/12/31 05:48:57;;;;;;;5.93;2.42;;;;;;;2.85;69.68;98861.06;3815913;23;20048;-76
2020/12/31 05:50:38;;;;;;;4.90;2.80;;;;;;;2.73;69.75;98857.63;3812841;23;20032;-76
2020/12/31 05:52:31;;;;;;;5.68;2.75;;;;;;;2.78;69.97;98852.81;3820539;23;20454;-76
2020/12/31 05:54:12;;;;;;;5.35;2.28;;;;;;;2.78;69.50;98844.06;3812524;23;20030;-77
2020/12/31 05:55:54;;;;;;;5.57;2.53;;;;;;;2.77;69.56;98856.44;3820255;23;20028;-76
2020/12/31 05:57:50;;;;;;;5.93;2.45;;;;;;;2.75;69.26;98849.56;3812968;23;20029;-76
2020/12/31 05:59:24;;;;;;;4.55;2.10;;;;;;;2.80;69.62;98845.59;3813574;23;20021;-78
2020/12/31 06:01:02;;;;;;;5.45;2.38;;;;;;;2.78;69.18;98847.53;3820194;23;20096;-76
2020/12/31 06:07:42;;;;;;;5.35;2.47;;;;;;;2.77;69.19;98834.44;3820335;23;19917;-76
2020/12/31 06:09:27;;;;;;;4.40;1.98;;;;;;;2.81;69.03;98841.16;3797848;23;20021;-76
2020/12/31 06:11:09;;;;;;;6.00;2.80;;;;;;;2.63;69.04;98838.22;3820126;23;20022;-76
2020/12/31 06:17:46;;;;;;;7.57;3.05;;;;;;;2.48;69.50;98840.28;3815425;23;20018;-76
2020/12/31 06:19:31;;;;;;;5.28;2.85;;;;;;;2.45;69.43;98830.00;3821812;23;20052;-75
2020/12/31 06:21:05;;;;;;;5.32;2.72;;;;;;;2.47;69.59;98844.72;3813037;23;20025;-76
2020/12/31 06:23:00;;;;;;;7.25;3.78;;;;;;;2.42;69.31;98836.31;3822198;23;20032;-75
2020/12/31 06:24:37;;;;;;;5.05;2.55;;;;;;;2.46;69.59;98845.69;3811945;23;20060;-75
2020/12/31 06:26:22;;;;;;;6.03;2.92;;;;;;;2.42;69.55;98835.50;3821682;23;20489;-77
2020/12/31 06:28:03;;;;;;;5.30;2.40;;;;;;;2.36;69.52;98836.81;3815491;23;20025;-76
2020/12/31 06:29:51;;;;;;;6.20;2.92;;;;;;;2.34;69.42;98838.75;3815804;23;20072;-76
2020/12/31 06:31:26;;;;;;;5.30;2.30;;;;;;;2.37;69.50;98832.38;3822737;23;20029;-76
2020/12/31 06:33:00;;;;;;;5.07;2.63;;;;;;;2.37;69.53;98816.53;3799729;23;20080;-76
2020/12/31 06:35:03;;;;;;;8.48;3.22;;;;;;;2.44;68.89;98838.88;3821084;23;20033;-76
2020/12/31 06:36:36;;;;;;;5.15;2.53;;;;;;;2.44;69.08;98826.50;3813358;23;20048;-76
2020/12/31 06:38:37;;;;;;;5.03;2.42;;;;;;;2.41;68.34;98824.09;3821823;23;20021;-76
2020/12/31 06:40:44;;;;;;;4.60;2.63;;;;;;;2.41;68.38;98839.09;3816002;23;20053;-76
2020/12/31 06:42:19;;;;;;;6.50;2.42;;;;;;;2.50;68.30;98833.91;3799875;23;20022;-76
2020/12/31 06:44:06;;;;;;;5.07;2.65;;;;;;;2.39;67.81;98828.69;3822499;23;20439;-75
2020/12/31 06:45:52;;;;;;;4.93;2.30;;;;;;;2.50;67.38;98833.09;3782983;23;20021;-76
2020/12/31 06:47:37;;;;;;;5.60;2.58;;;;;;;2.44;67.40;98829.13;3795219;23;20025;-76
2020/12/31 06:49:50;;;;;;;4.40;1.92;;;;;;;2.51;67.07;98840.03;3821197;23;20022;-76
2020/12/31 06:51:26;;;;;;;3.85;1.98;;;;;;;2.53;67.29;98834.63;3816241;23;20057;-76
2020/12/31 07:11:39;;;;;;;4.43;2.13;;;;;;;2.54;65.20;98828.41;3815976;23;20021;-77
2020/12/31 07:13:31;;;;;;;5.38;2.28;;;;;;;2.55;65.12;98833.53;3803671;23;20030;-77
2020/12/31 07:15:19;;;;;;;4.00;1.80;;;;;;;2.70;64.92;98826.19;3805792;23;20022;-78
2020/12/31 07:16:59;;;;;;;5.65;2.35;;;;;;;2.67;64.64;98822.97;3807487;23;20013;-77
2020/12/31 07:18:41;;;;;;;3.78;2.03;;;;;;;2.61;64.79;98817.22;3795636;23;20033;-78
2020/12/31 07:20:17;;;;;;;3.65;1.83;;;;;;;2.68;64.96;98825.50;3803897;23;20030;-77
2020/12/31 07:30:33;;;;;;;4.05;2.08;;;;;;;2.90;64.13;98826.38;3827546;23;20036;-77
2020/12/31 07:32:09;;;;;;;4.22;1.90;;;;;;;2.94;64.37;98828.63;3830219;23;20057;-79
2020/12/31 07:33:41;;;;;;;3.85;1.60;;;;;;;2.99;64.26;98824.78;3824191;23;20025;-77
2020/12/31 07:35:38;;;;;;;6.13;2.78;;;;;;;3.02;63.57;98827.19;3830861;23;20025;-77
2020/12/31 07:37:26;;;;;;;4.45;2.33;;;;;;;2.94;63.68;98828.63;3826644;23;20025;-77
2020/12/31 07:39:06;;;;;;;5.35;1.70;;;;;;;3.05;63.28;98829.56;3825513;23;20033;-76
2020/12/31 07:40:53;;;;;;;5.57;2.55;;;;;;;3.05;63.43;98816.34;3828791;23;20021;-76
2020/12/31 07:42:30;;;;;;;8.43;2.53;;;;;;;3.09;63.45;98831.00;3818224;23;20022;-77
2020/12/31 07:44:47;;;;;;;5.47;2.40;;;;;;;3.09;63.20;98831.81;3832013;23;20416;-78
2020/12/31 07:46:29;;;;;;;4.60;2.30;;;;;;;2.99;63.14;98822.16;3829586;23;20018;-80
2020/12/31 07:48:42;;;;;;;6.00;2.50;;;;;;;3.03;63.12;98828.84;3825978;23;20021;-78
2020/12/31 07:50:26;;;;;;;5.55;2.58;;;;;;;2.99;63.15;98822.16;3833349;23;20025;-78
2020/12/31 08:09:25;;;;;;;5.25;2.53;;;;;;;2.89;64.24;98812.34;3825316;23;20021;-77
2020/12/31 08:11:06;;;;;;;7.50;3.58;;;;;;;2.94;64.33;98814.59;3833857;23;20026;-78
2020/12/31 08:16:02;;;;;;;5.68;2.60;;;;;;;2.93;64.50;98807.66;3823097;23;20043;-78
2020/12/31 08:18:03;;;;;;;5.30;2.47;;;;;;;2.96;64.03;98816.16;3825259;23;20022;-80
2020/12/31 08:19:38;;;;;;;5.97;2.85;;;;;;;3.01;64.31;98817.59;3833148;23;20064;-78
2020/12/31 08:21:28;;;;;;;5.30;2.67;;;;;;;3.04;64.07;98810.25;3826608;23;20021;-78
2020/12/31 08:23:22;;;;;;;5.20;2.20;;;;;;;3.09;63.79;98810.69;3815726;23;20459;-78
2020/12/31 08:25:32;;;;;;;5.10;2.67;;;;;;;3.11;63.76;98810.59;3807879;23;20054;-76
2020/12/31 08:27:04;;;;;;;4.50;2.20;;;;;;;3.07;63.94;98811.78;3806915;23;20032;-77
2020/12/31 08:29:18;;;;;;;6.63;2.83;;;;;;;3.15;63.88;98813.81;3809207;23;20029;-80
2020/12/31 08:31:00;;;;;;;6.03;2.50;;;;;;;3.17;63.78;98815.34;3810505;23;20006;-78
2020/12/31 08:35:21;;;;;;;5.30;2.75;;;;;;;3.17;63.48;98807.41;3816260;23;20033;-77
2020/12/31 08:36:55;;;;;;;4.75;2.70;;;;;;;3.23;63.67;98798.97;3811816;23;20026;-78
2020/12/31 08:38:36;;;;;;;6.38;2.90;;;;;;;3.24;63.80;98808.56;3809125;23;20025;-79
2020/12/31 08:40:24;;;;;;;4.72;2.30;;;;;;;3.21;63.12;98790.34;3817264;23;20022;-77
2020/12/31 09:59:06;;;;;;;5.95;3.53;;;;;;;4.26;61.00;98784.97;3827677;23;20100;-80
2020/12/31 10:00:46;;;;;;;5.80;3.38;;;;;;;4.19;60.97;98782.06;3826555;23;20018;-78
2020/12/31 10:02:18;;;;;;;6.47;3.15;;;;;;;4.25;61.37;98783.34;3835284;23;20041;-79
2020/12/31 10:03:50;;;;;;;10.75;5.78;;;;;;;4.25;61.01;98778.88;3827289;23;20024;-80
2020/12/31 10:05:21;;;;;;;6.38;3.33;;;;;;;4.21;61.17;98780.09;3826273;23;20033;-79
2020/12/31 10:07:08;;;;;;;7.82;4.35;;;;;;;4.16;60.93;98785.78;3834830;23;20027;-79
2020/12/31 10:50:16;;;;;;;6.95;3.97;;;;;;;2.70;74.07;98752.28;3830538;23;20359;-78
2020/12/31 10:51:57;;;;;;;6.60;3.85;;;;;;;2.64;74.61;98744.88;3826137;23;20030;-79
2020/12/31 10:53:41;;;;;;;7.82;4.28;;;;;;;2.61;75.47;98743.34;3826469;23;20102;-79
2020/12/31 10:55:38;;;;;;;8.05;3.75;;;;;;;2.63;75.67;98741.44;3833436;23;20021;-78
2020/12/31 10:57:10;;;;;;;6.30;4.18;;;;;;;2.59;75.28;98740.00;3829003;23;20025;-78
2020/12/31 10:58:41;;;;;;;6.85;3.97;;;;;;;2.64;75.09;98716.72;3835443;23;20029;-78
2020/12/31 11:00:13;;;;;;;6.32;3.50;;;;;;;2.67;75.42;98717.41;3827606;23;20021;-78
2020/12/31 11:10:18;;;;;;;8.30;4.65;;;;;;;2.64;76.39;98705.31;3826972;23;20131;-78
2020/12/31 11:18:42;;;;;;;7.93;4.30;;;;;;;2.80;76.07;98708.34;3826667;23;19943;-79
2020/12/31 11:20:15;;;;;;;7.82;4.05;;;;;;;2.88;75.83;98704.25;3832703;23;20017;-79
2020/12/31 11:28:31;;;;;;;8.65;4.70;;;;;;;2.76;77.38;98706.09;3824231;23;20037;-78
2020/12/31 11:30:04;;;;;;;8.95;4.80;;;;;;;2.77;77.31;98708.63;3815139;23;20017;-78
2020/12/31 11:51:39;;;;;;;9.05;4.88;;;;;;;2.77;77.53;98676.09;3826110;23;20089;-79
2020/12/31 11:53:11;;;;;;;9.25;5.05;;;;;;;2.79;77.25;98674.16;3821894;23;20020;-78
2020/12/31 11:54:42;;;;;;;10.43;4.80;;;;;;;2.75;77.28;98662.19;3815652;23;20024;-78
2020/12/31 11:56:13;;;;;;;;;;;;;;;2.72;78.21;98668.56;3821631;23;20067;-79
2020/12/31 11:57:48;;;;;;;;;;;;;;;2.73;78.15;98677.31;3814854;23;20378;-78
2020/12/31 11:59:28;;;;;;;8.60;4.57;;;;;;;2.75;77.49;98670.94;3818344;23;20393;-78
2020/12/31 12:01:02;;;;;;;8.63;4.43;;;;;;;2.74;77.34;98661.34;3817891;23;20032;-78
2020/12/31 12:05:54;;;;;;;7.90;4.28;;;;;;;2.81;77.47;98661.69;3830479;23;20013;-78
2020/12/31 12:07:26;;;;;;;7.82;4.28;;;;;;;2.82;77.50;98655.44;3840214;23;20032;-78
2020/12/31 12:09:00;;;;;;;9.43;4.78;;;;;;;2.84;77.32;98656.13;3831983;23;20032;-79
2020/12/31 12:10:31;;;;;;;8.57;5.05;;;;;;;2.82;77.80;98652.81;3839411;23;20017;-79
2020/12/31 12:37:05;;;;;;;10.95;4.00;;;;;;;3.21;77.49;98626.56;3823201;23;20021;-79
2020/12/31 12:38:39;;;;;;;9.38;5.15;;;;;;;3.29;77.40;98633.84;3813559;23;20028;-79
2020/12/31 12:40:11;;;;;;;9.40;5.50;;;;;;;3.23;77.38;98626.47;3820714;23;20021;-79
2020/12/31 12:41:42;;;;;;;7.95;4.53;;;;;;;3.23;77.30;98618.53;3811459;23;20029;-79
2020/12/31 12:43:17;;;;;;;7.90;4.55;;;;;;;3.25;77.34;98612.16;3820660;23;20104;-79
2020/12/31 12:44:49;;;;;;;7.90;4.38;;;;;;;3.33;77.05;98618.56;3812121;23;20029;-79
2020/12/31 12:46:21;;;;;;;8.45;4.38;;;;;;;3.34;77.17;98614.97;3820252;23;20026;-79
2020/12/31 12:47:52;;;;;;;8.63;4.97;;;;;;;3.37;77.30;98607.59;3813126;23;20037;-79
2020/12/31 12:49:31;;;;;;;;;;;;;;;3.38;77.13;98617.19;3821003;23;20057;-79
2020/12/31 12:51:03;;;;;;;9.23;4.85;;;;;;;3.35;77.24;98611.34;3814354;23;19916;-79
2020/12/31 12:54:16;;;;;;;9.10;4.15;;;;;;;3.48;76.95;98622.53;3821617;23;20021;-79
2020/12/31 12:55:47;;;;;;;9.15;5.03;;;;;;;3.51;77.08;98606.38;3820753;23;20025;-79
2020/12/31 12:57:19;;;;;;;10.50;5.07;;;;;;;3.48;76.96;98611.09;3813174;23;20109;-79
2020/12/31 12:58:50;;;;;;;7.60;4.22;;;;;;;3.51;76.93;98608.22;3821014;23;20017;-79
2020/12/31 13:00:22;;;;;;;8.05;4.90;;;;;;;3.46;77.13;98595.41;3811682;23;20477;-79
2020/12/31 13:01:54;;;;;;;9.07;5.25;;;;;;;3.42;77.03;98593.97;3820315;23;20350;-79
2020/12/31 13:03:27;;;;;;;9.85;5.65;;;;;;;3.46;77.06;98595.41;3812370;23;20113;-80
2020/12/31 13:04:58;;;;;;;9.85;4.97;;;;;;;3.47;76.88;98594.44;3832494;23;20037;-79
2020/12/31 13:06:30;;;;;;;8.88;4.28;;;;;;;3.57;76.84;98597.09;3825345;23;20083;-79
2020/12/31 13:08:01;;;;;;;8.63;4.97;;;;;;;3.65;76.77;98604.34;3825321;23;20053;-79
2020/12/31 13:09:34;;;;;;;7.68;4.90;;;;;;;3.63;76.79;98593.06;3812695;23;20022;-79
2020/12/31 13:11:10;;;;;;;9.40;5.55;;;;;;;3.65;76.96;98591.13;3821522;23;20021;-79
2020/12/31 13:12:41;;;;;;;8.48;4.55;;;;;;;3.65;76.59;98594.59;3811839;23;20050;-79
2020/12/31 13:14:17;;;;;;;8.38;4.97;;;;;;;3.62;76.50;98596.69;3820286;23;20344;-79
2020/12/31 13:15:58;;;;;;;8.07;4.70;;;;;;;3.65;76.78;98591.13;3796854;23;20025;-78
2020/12/31 13:17:29;;;;;;;7.68;4.50;;;;;;;3.72;76.68;98593.09;3810891;23;20044;-79
2020/12/31 13:19:03;;;;;;;8.70;4.85;;;;;;;3.68;76.60;98590.88;3820011;23;20029;-79
2020/12/31 13:20:35;;;;;;;7.40;4.15;;;;;;;3.64;76.87;98589.47;3814910;23;20025;-79
2020/12/31 13:22:06;;;;;;;8.93;5.43;;;;;;;3.72;76.64;98589.59;3827333;23;20028;-79
2020/12/31 13:23:44;;;;;;;8.57;4.65;;;;;;;3.70;76.85;98591.53;3780989;23;20029;-79
2020/12/31 13:25:35;;;;;;;9.13;4.78;;;;;;;3.70;76.75;98588.91;3800763;23;20343;-79
2020/12/31 13:27:11;;;;;;;7.30;4.22;;;;;;;3.75;76.82;98579.59;3782621;23;20044;-79
2020/12/31 13:28:42;;;;;;;8.15;5.22;;;;;;;3.75;76.76;98581.41;3804709;23;20036;-80
2020/12/31 13:30:15;;;;;;;9.50;5.75;;;;;;;3.65;76.77;98583.19;3809946;23;20021;-79
2020/12/31 13:31:47;;;;;;;10.52;5.30;;;;;;;3.72;76.76;98584.31;3819698;23;20029;-79
2020/12/31 13:33:20;;;;;;;7.05;3.55;;;;;;;3.76;76.56;98577.81;3812405;23;20029;-79
2020/12/31 13:34:52;;;;;;;7.53;4.15;;;;;;;3.87;76.45;98580.28;3820134;23;20080;-79
2020/12/31 13:36:23;;;;;;;8.05;4.57;;;;;;;3.85;76.31;98576.13;3811368;23;20116;-79
2020/12/31 13:37:55;;;;;;;10.70;5.72;;;;;;;3.82;76.31;98569.31;3819805;23;20025;-79
2020/12/31 13:39:27;;;;;;;8.52;4.85;;;;;;;3.84;76.30;98575.31;3812034;23;20025;-79
2020/12/31 13:41:07;;;;;;;8.30;5.10;;;;;;;3.83;75.90;98572.78;3820413;23;20045;-79
2020/12/31 13:59:28;;;;;;;9.20;5.18;;;;;;;4.15;75.38;98571.69;3816895;23;20104;-79
2020/12/31 14:00:59;;;;;;;7.90;4.65;;;;;;;4.21;75.46;98574.63;3818468;23;20502;-79
2020/12/31 14:09:11;;;;;;;9.98;5.68;;;;;;;4.30;75.17;98561.50;3825998;23;20037;-81
2020/12/31 14:11:12;;;;;;;8.75;4.85;;;;;;;4.35;74.58;98567.19;3826760;23;20370;-80
2020/12/31 15:09:16;;;;;;;11.15;3.83;;;;;;;4.80;73.63;98566.56;3794302;23;20053;-79
2020/12/31 15:10:48;;;;;;;6.90;3.95;;;;;;;4.76;73.54;98554.59;3810733;23;20021;-79
2020/12/31 15:37:21;;;;;;;7.53;3.67;;;;;;;4.94;72.63;98548.53;3822513;23;20017;-80
2020/12/31 16:16:56;;;;;;;10.35;5.53;;;;;;;5.24;70.04;98533.34;3822678;23;21332;-80
2020/12/31 16:18:43;;;;;;;9.85;4.88;;;;;;;5.23;69.41;98536.97;3814720;23;20474;-78
2020/12/31 16:20:16;;;;;;;7.05;3.40;;;;;;;5.23;70.02;98535.19;3822108;23;20029;-80
2020/12/31 17:02:36;;;;;;;13.85;8.70;;;;;;;5.35;69.68;98527.84;3816241;23;19923;-79
2020/12/31 17:04:07;;;;;;;13.70;9.05;;;;;;;5.37;69.68;98525.88;3821449;23;20359;-79
2020/12/31 17:05:45;;;;;;;12.63;7.07;;;;;;;5.32;69.59;98536.09;3815206;23;20088;-80
2020/12/31 17:09:53;;;;;;;16.10;11.23;;;;;;;5.34;69.67;98541.25;3825279;23;20021;-79
2020/12/31 17:29:19;;;;;;;11.77;7.38;;;;;;;5.41;71.05;98551.09;3823298;23;20068;-79
2020/12/31 17:31:13;;;;;;;12.75;7.53;;;;;;;5.22;72.15;98548.53;3828455;23;20077;-79
2020/12/31 17:32:47;;;;;;;13.55;8.55;;;;;;;5.07;72.49;98551.69;3815140;23;20459;-79
2020/12/31 17:34:36;;;;;;;12.57;8.20;;;;;;;4.89;73.21;98553.44;3822666;23;20032;-80
2020/12/31 17:36:08;;;;;;;14.52;7.18;;;;;;;4.86;73.61;98548.44;3813606;23;20025;-79
2020/12/31 17:37:48;;;;;;;12.32;7.07;;;;;;;4.96;73.55;98550.03;3822368;23;20379;-80
2020/12/31 17:39:25;;;;;;;11.32;6.60;;;;;;;4.94;73.80;98549.38;3815832;23;20093;-79
2020/12/31 17:40:56;;;;;;;15.57;8.20;;;;;;;4.93;73.70;98538.91;3823778;23;20026;-79
2020/12/31 17:42:36;;;;;;;12.98;7.68;;;;;;;4.95;74.30;98542.25;3816833;23;20143;-79
2020/12/31 17:44:33;;;;;;;15.07;7.07;;;;;;;5.00;74.61;98547.97;3827416;23;20529;-79
2020/12/31 17:46:36;;;;;;;12.30;6.28;;;;;;;4.95;74.12;98548.41;3824544;23;20376;-79
2020/12/31 17:48:19;;;;;;;16.98;8.07;;;;;;;4.86;74.90;98545.78;3819222;23;20017;-79
2020/12/31 17:49:55;;;;;;;14.52;6.95;;;;;;;4.88;74.60;98551.78;3822692;23;20017;-79
2020/12/31 17:51:33;;;;;;;15.32;9.88;;;;;;;4.87;74.69;98544.81;3816127;23;20049;-79
2020/12/31 17:53:07;;;;;;;21.48;12.60;;;;;;;4.96;74.79;98550.03;3821957;23;20463;-78
2020/12/31 17:54:48;;;;;;;25.17;16.05;;;;;;;4.89;74.94;98542.84;3815483;23;20021;-79
2020/12/31 17:56:19;;;;;;;;;;;;;;;4.87;75.34;98548.28;3816727;23;20524;-80
2020/12/31 17:58:07;;;;;;;13.70;7.40;;;;;;;4.94;74.74;98556.47;3821748;23;20003;-79
2020/12/31 17:59:47;;;;;;;13.48;8.35;;;;;;;4.97;74.07;98559.66;3815123;23;20564;-80
2020/12/31 18:01:23;;;;;;;13.10;8.02;;;;;;;4.97;73.78;98545.59;3822898;23;20041;-79
2020/12/31 18:02:56;;;;;;;9.93;5.95;;;;;;;5.02;73.39;98548.63;3824537;23;20041;-79
2020/12/31 18:04:39;;;;;;;10.90;6.50;;;;;;;5.06;73.01;98550.03;3821542;23;20076;-80
2020/12/31 18:06:18;;;;;;;11.20;6.78;;;;;;;5.13;72.93;98561.69;3814287;23;20033;-78
2020/12/31 18:07:52;;;;;;;21.63;14.35;;;;;;;5.13;72.83;98551.09;3821138;23;20018;-79
2020/12/31 18:09:24;;;;;;;12.02;6.97;;;;;;;5.18;72.85;98557.78;3814005;23;20021;-79
2020/12/31 18:10:56;;;;;;;10.30;5.57;;;;;;;5.19;72.73;98554.16;3821047;23;20017;-79
2020/12/31 18:12:34;;;;;;;11.55;7.32;;;;;;;5.17;72.23;98553.47;3813606;23;20019;-79
2020/12/31 18:14:12;;;;;;;15.02;8.55;;;;;;;5.18;72.39;98558.59;3821314;23;20328;-78
2020/12/31 18:15:53;;;;;;;12.57;6.43;;;;;;;5.21;72.29;98560.13;3810304;23;20017;-79
2020/12/31 18:17:29;;;;;;;11.20;6.93;;;;;;;5.18;72.32;98555.13;3812955;23;20045;-80
2020/12/31 18:40:03;;;;;;;7.68;4.38;;;;;;;5.13;72.42;98564.34;3821964;23;20442;-78
2020/12/31 18:41:35;;;;;;;7.30;4.43;;;;;;;5.17;72.57;98564.06;3814194;23;20026;-79
2020/12/31 18:43:09;;;;;;;9.02;5.22;;;;;;;5.14;72.56;98563.38;3820621;23;20025;-78
2020/12/31 18:44:49;;;;;;;9.32;5.03;;;;;;;5.15;72.47;98562.38;3781311;23;20026;-79
2020/12/31 18:46:53;;;;;;;9.50;5.13;;;;;;;5.13;72.64;98571.47;3820629;23;20413;-79
2020/12/31 18:48:51;;;;;;;8.65;5.30;;;;;;;5.09;72.81;98565.63;3681746;23;20019;-79